createdAt,value
2022-10-13T00:00:13.353Z,24.77
2022-10-13T00:02:40.826Z,24.57
2022-10-13T00:05:08.742Z,25.07
2022-10-13T00:07:36.216Z,26.10
2022-10-13T00:10:06.025Z,25.07
2022-10-13T00:12:36.775Z,24.97
2022-10-13T00:15:04.676Z,24.63
2022-10-13T00:17:32.137Z,24.07
2022-10-13T00:20:01.994Z,24.43
2022-10-13T00:22:29.476Z,24.47
2022-10-13T00:24:58.211Z,24.67
2022-10-13T00:27:25.924Z,25.00
2022-10-13T00:29:54.807Z,25.23
2022-10-13T00:32:22.527Z,24.50
2022-10-13T00:34:50.341Z,25.87
2022-10-13T00:37:17.810Z,24.77
2022-10-13T00:39:45.197Z,26.47
2022-10-13T00:42:14.173Z,25.17
2022-10-13T00:45:01.110Z,27.03
2022-10-13T00:47:29.770Z,27.20
2022-10-13T00:49:57.920Z,26.37
2022-10-13T00:52:26.605Z,25.17
2022-10-13T00:54:54.783Z,25.57
2022-10-13T00:57:22.686Z,27.50
2022-10-13T00:59:50.079Z,26.00
2022-10-13T01:02:19.117Z,26.27
2022-10-13T01:04:48.111Z,28.17
2022-10-13T01:07:17.188Z,27.13
2022-10-13T01:09:45.221Z,26.20
2022-10-13T01:12:21.299Z,27.17
2022-10-13T01:14:51.643Z,27.43
2022-10-13T01:17:26.416Z,27.27
2022-10-13T01:20:05.671Z,26.27
2022-10-13T01:22:40.405Z,32.07
2022-10-13T01:25:13.945Z,31.30
2022-10-13T01:27:54.639Z,32.73
2022-10-13T01:30:23.794Z,32.73
2022-10-13T01:33:06.066Z,31.57
2022-10-13T01:35:51.451Z,33.53
2022-10-13T01:38:23.955Z,31.53
2022-10-13T01:41:00.460Z,33.13
2022-10-13T01:43:29.732Z,33.23
2022-10-13T01:46:01.665Z,32.33
2022-10-13T01:48:29.374Z,32.10
2022-10-13T01:50:57.634Z,32.50
2022-10-13T01:53:25.475Z,30.77
2022-10-13T01:55:53.442Z,30.90
2022-10-13T01:58:21.411Z,30.90
2022-10-13T02:00:53.575Z,32.10
2022-10-13T02:03:24.455Z,31.53
2022-10-13T02:05:56.849Z,27.17
2022-10-13T02:08:26.227Z,26.80
2022-10-13T02:10:58.301Z,25.17
2022-10-13T02:13:28.590Z,25.83
2022-10-13T02:15:57.879Z,24.60
2022-10-13T02:18:29.328Z,25.37
2022-10-13T02:20:56.884Z,26.97
2022-10-13T02:23:24.574Z,25.30
2022-10-13T02:25:52.055Z,25.63
2022-10-13T02:28:20.150Z,23.57
2022-10-13T02:30:47.869Z,25.40
2022-10-13T02:33:15.688Z,25.00
2022-10-13T02:35:44.755Z,25.87
2022-10-13T02:38:12.199Z,26.03
2022-10-13T02:40:39.667Z,25.87
2022-10-13T02:43:07.226Z,25.10
2022-10-13T02:45:34.686Z,25.23
2022-10-13T02:48:02.098Z,25.93
2022-10-13T02:50:29.518Z,25.23
2022-10-13T02:52:58.356Z,24.87
2022-10-13T02:55:25.749Z,25.83
2022-10-13T02:57:53.149Z,23.47
2022-10-13T03:00:20.642Z,24.57
2022-10-13T03:02:48.119Z,23.30
2022-10-13T03:05:15.593Z,22.07
2022-10-13T03:07:43.114Z,22.27
2022-10-13T03:10:11.983Z,23.27
2022-10-13T03:12:39.346Z,24.13
2022-10-13T03:15:07.187Z,22.73
2022-10-13T03:17:34.582Z,22.47
2022-10-13T03:20:02.017Z,23.90
2022-10-13T03:22:31.861Z,23.37
2022-10-13T03:24:59.252Z,22.60
2022-10-13T03:27:27.958Z,23.47
2022-10-13T03:29:55.406Z,24.37
2022-10-13T03:32:23.134Z,23.17
2022-10-13T03:34:50.703Z,22.67
2022-10-13T03:37:18.366Z,23.80
2022-10-13T03:39:46.018Z,23.27
2022-10-13T03:42:13.392Z,22.77
2022-10-13T03:44:42.127Z,23.17
2022-10-13T03:47:09.514Z,23.73
2022-10-13T03:49:38.250Z,23.10
2022-10-13T03:52:05.860Z,24.03
2022-10-13T03:54:33.374Z,23.97
2022-10-13T03:57:00.788Z,23.90
2022-10-13T03:59:34.215Z,22.83
2022-10-13T04:02:05.402Z,24.33
2022-10-13T04:04:32.853Z,24.57
2022-10-13T04:07:00.260Z,22.70
2022-10-13T04:09:27.763Z,23.40
2022-10-13T04:11:55.152Z,21.77
2022-10-13T04:14:22.677Z,24.50
2022-10-13T04:16:50.059Z,23.67
2022-10-13T04:19:18.837Z,23.90
2022-10-13T04:21:46.283Z,24.73
2022-10-13T04:24:14.292Z,24.83
2022-10-13T04:26:42.192Z,27.90
2022-10-13T04:29:10.766Z,26.93
2022-10-13T04:31:38.854Z,27.27
2022-10-13T04:34:07.658Z,28.00
2022-10-13T04:36:36.511Z,28.10
2022-10-13T04:39:04.159Z,27.73
2022-10-13T04:41:31.551Z,28.03
2022-10-13T04:43:59.096Z,29.20
2022-10-13T04:46:27.665Z,29.97
2022-10-13T04:48:55.711Z,30.23
2022-10-13T04:51:23.989Z,29.23
2022-10-13T04:53:56.356Z,29.27
2022-10-13T04:56:23.811Z,30.27
2022-10-13T04:58:51.240Z,30.00
2022-10-13T05:01:22.147Z,30.00
2022-10-13T05:03:51.303Z,27.63
2022-10-13T05:06:19.397Z,29.13
2022-10-13T05:08:46.841Z,29.67
2022-10-13T05:11:16.913Z,28.13
2022-10-13T05:13:44.329Z,29.37
2022-10-13T05:16:12.874Z,28.90
2022-10-13T05:18:40.868Z,30.43
2022-10-13T05:21:09.432Z,29.13
2022-10-13T05:23:37.028Z,29.67
2022-10-13T05:26:05.703Z,29.07
2022-10-13T05:28:34.796Z,29.97
2022-10-13T05:31:09.629Z,30.10
2022-10-13T05:33:37.585Z,28.27
2022-10-13T05:36:06.262Z,29.50
2022-10-13T05:38:33.690Z,29.43
2022-10-13T05:41:04.671Z,29.40
2022-10-13T05:43:32.136Z,28.80
2022-10-13T05:46:01.230Z,28.40
2022-10-13T05:48:28.889Z,28.03
2022-10-13T05:50:58.337Z,29.53
2022-10-13T05:53:26.471Z,28.50
2022-10-13T05:55:54.408Z,28.10
2022-10-13T05:58:25.599Z,28.93
2022-10-13T06:00:55.043Z,26.97
2022-10-13T06:03:24.188Z,28.40
2022-10-13T06:05:51.625Z,27.00
2022-10-13T06:08:19.050Z,27.73
2022-10-13T06:10:46.525Z,27.47
2022-10-13T06:13:13.971Z,26.67
2022-10-13T06:15:41.382Z,26.57
2022-10-13T06:18:09.115Z,27.33
2022-10-13T06:20:38.322Z,27.10
2022-10-13T06:23:05.952Z,25.00
2022-10-13T06:25:33.404Z,25.60
2022-10-13T06:28:01.051Z,25.33
2022-10-13T06:30:28.524Z,25.40
2022-10-13T06:32:56.193Z,25.87
2022-10-13T06:35:24.159Z,25.60
2022-10-13T06:37:53.165Z,26.23
2022-10-13T06:40:20.686Z,24.80
2022-10-13T06:42:51.750Z,26.47
2022-10-13T06:45:19.487Z,25.37
2022-10-13T06:47:46.947Z,24.63
2022-10-13T06:50:14.494Z,25.60
2022-10-13T06:52:43.327Z,25.80
2022-10-13T06:55:12.079Z,25.67
2022-10-13T06:57:39.523Z,23.83
2022-10-13T07:00:07.848Z,24.17
2022-10-13T07:02:35.248Z,25.07
2022-10-13T07:05:02.876Z,24.60
2022-10-13T07:07:30.297Z,23.90
2022-10-13T07:09:57.679Z,22.53
2022-10-13T07:12:26.472Z,23.00
2022-10-13T07:14:53.925Z,23.53
2022-10-13T07:17:21.690Z,22.90
2022-10-13T07:19:49.394Z,23.13
2022-10-13T07:22:16.952Z,21.97
2022-10-13T07:24:44.764Z,22.20
2022-10-13T07:27:12.172Z,23.40
2022-10-13T07:29:40.987Z,21.17
2022-10-13T07:32:08.404Z,22.00
2022-10-13T07:34:35.822Z,22.47
2022-10-13T07:37:04.264Z,19.77
2022-10-13T07:39:31.921Z,18.87
2022-10-13T07:41:59.507Z,19.00
2022-10-13T07:44:27.296Z,18.50
2022-10-13T07:46:56.240Z,18.60
2022-10-13T07:49:23.846Z,20.10
2022-10-13T07:51:51.440Z,19.43
2022-10-13T07:54:22.525Z,17.97
2022-10-13T07:56:52.753Z,19.83
2022-10-13T07:59:20.307Z,18.90
2022-10-13T08:01:47.891Z,16.83
2022-10-13T08:04:17.006Z,18.07
2022-10-13T08:06:44.675Z,18.73
2022-10-13T08:09:12.441Z,18.00
2022-10-13T08:11:40.027Z,17.07
2022-10-13T08:14:07.549Z,17.67
2022-10-13T08:16:35.029Z,16.50
2022-10-13T08:19:02.626Z,15.97
2022-10-13T08:24:19.461Z,17.77
2022-10-13T08:26:47.518Z,17.07
2022-10-13T08:29:23.552Z,16.70
2022-10-13T08:31:52.042Z,16.03
2022-10-13T08:34:19.915Z,17.70
2022-10-13T08:36:52.614Z,15.80
2022-10-13T08:39:20.101Z,15.73
2022-10-13T08:41:47.651Z,14.60
2022-10-13T08:47:13.141Z,16.43
2022-10-13T08:49:41.877Z,14.97
2022-10-13T08:52:14.813Z,15.93
2022-10-13T08:54:42.376Z,16.20
2022-10-13T08:57:10.114Z,15.03
2022-10-13T08:59:37.809Z,14.40
2022-10-13T09:02:10.953Z,14.73
2022-10-13T09:04:41.623Z,14.23
2022-10-13T09:07:14.425Z,13.67
2022-10-13T09:09:41.961Z,14.47
2022-10-13T09:12:11.423Z,13.80
2022-10-13T09:14:40.162Z,14.00
2022-10-13T09:17:15.834Z,14.23
2022-10-13T09:19:43.853Z,14.47
2022-10-13T09:22:22.690Z,12.63
2022-10-13T09:25:02.799Z,14.33
2022-10-13T09:27:41.941Z,14.17
2022-10-13T09:30:29.869Z,12.93
2022-10-13T09:33:06.318Z,13.73
2022-10-13T09:35:35.149Z,14.47
2022-10-13T09:38:04.924Z,13.83
2022-10-13T09:40:32.700Z,13.87
2022-10-13T09:43:01.446Z,14.97
2022-10-13T09:45:30.408Z,15.17
2022-10-13T09:47:59.118Z,15.13
2022-10-13T09:50:27.985Z,14.13
2022-10-13T09:53:09.994Z,15.07
2022-10-13T09:55:38.823Z,15.30
2022-10-13T09:58:07.605Z,14.33
2022-10-13T10:00:35.163Z,15.17
2022-10-13T10:03:04.075Z,14.70
2022-10-13T10:05:37.370Z,14.40
2022-10-13T10:08:07.805Z,14.60
2022-10-13T10:10:36.909Z,15.17
2022-10-13T10:13:05.656Z,14.77
2022-10-13T10:15:37.216Z,14.20
2022-10-13T10:18:07.481Z,14.67
2022-10-13T10:20:52.416Z,15.07
2022-10-13T10:23:23.879Z,15.67
2022-10-13T10:25:52.367Z,15.40
2022-10-13T10:28:39.257Z,15.20
2022-10-13T10:31:10.698Z,15.03
2022-10-13T10:33:41.272Z,14.40
2022-10-13T10:36:16.714Z,15.13
2022-10-13T10:38:45.739Z,14.87
2022-10-13T10:41:17.590Z,13.33
2022-10-13T10:43:50.699Z,14.33
2022-10-13T10:46:19.621Z,14.67
2022-10-13T10:48:47.875Z,14.93
2022-10-13T10:51:15.994Z,14.03
2022-10-13T10:53:48.918Z,15.67
2022-10-13T10:56:19.820Z,15.17
2022-10-13T10:58:53.715Z,16.47
2022-10-13T11:01:28.669Z,16.13
2022-10-13T11:03:59.038Z,16.03
2022-10-13T11:06:32.910Z,15.13
2022-10-13T11:09:00.447Z,15.33
2022-10-13T11:11:37.262Z,15.50
2022-10-13T11:14:29.997Z,15.37
2022-10-13T11:17:04.544Z,14.27
2022-10-13T11:19:33.103Z,14.30
2022-10-13T11:22:24.834Z,13.23
2022-10-13T11:24:53.836Z,13.13
2022-10-13T11:27:26.098Z,12.93
2022-10-13T11:29:56.751Z,11.37
2022-10-13T11:32:44.871Z,13.90
2022-10-13T11:35:20.721Z,13.40
2022-10-13T11:38:05.857Z,13.43
2022-10-13T11:40:34.726Z,12.67
2022-10-13T11:43:08.417Z,12.07
2022-10-13T11:45:50.997Z,12.50
2022-10-13T11:48:38.269Z,11.43
2022-10-13T11:51:16.746Z,12.17
2022-10-13T11:53:50.243Z,11.50
2022-10-13T11:56:21.820Z,12.37
2022-10-13T11:58:49.470Z,12.40
2022-10-13T12:01:17.528Z,11.90
2022-10-13T12:03:47.189Z,11.77
2022-10-13T12:06:32.178Z,12.93
2022-10-13T12:09:01.523Z,11.50
2022-10-13T12:11:29.694Z,12.53
2022-10-13T12:13:57.656Z,12.83
2022-10-13T12:16:25.280Z,12.53
2022-10-13T12:18:54.044Z,11.83
2022-10-13T12:21:23.231Z,12.90
2022-10-13T12:23:51.209Z,12.43
2022-10-13T12:26:19.472Z,12.40
2022-10-13T12:28:51.515Z,13.67
2022-10-13T12:31:20.405Z,13.90
2022-10-13T12:33:54.717Z,11.57
2022-10-13T12:36:23.137Z,12.50
2022-10-13T12:38:51.462Z,13.30
2022-10-13T12:41:20.305Z,12.27
2022-10-13T12:43:47.774Z,11.53
2022-10-13T12:46:35.966Z,12.57
2022-10-13T12:49:08.026Z,13.03
2022-10-13T12:51:42.656Z,12.60
2022-10-13T12:54:10.903Z,12.40
2022-10-13T12:56:38.353Z,12.57
2022-10-13T12:59:05.723Z,11.93
2022-10-13T13:01:33.610Z,12.50
2022-10-13T13:04:02.371Z,12.50
2022-10-13T13:06:35.065Z,12.37
2022-10-13T13:09:09.918Z,13.47
2022-10-13T13:11:38.079Z,11.67
2022-10-13T13:14:35.647Z,12.80
2022-10-13T13:17:04.095Z,12.03
2022-10-13T13:19:32.413Z,12.87
2022-10-13T13:22:01.263Z,11.80
2022-10-13T13:24:39.493Z,11.27
2022-10-13T13:27:18.316Z,11.53
2022-10-13T13:29:45.978Z,11.70
2022-10-13T13:32:14.028Z,12.60
2022-10-13T13:34:41.595Z,11.77
2022-10-13T13:37:13.273Z,13.13
2022-10-13T13:39:40.675Z,11.77
2022-10-13T13:42:12.892Z,11.67
2022-10-13T13:44:40.276Z,12.17
2022-10-13T13:47:11.525Z,11.83
2022-10-13T13:49:38.928Z,11.97
2022-10-13T13:52:06.328Z,12.80
2022-10-13T13:54:35.077Z,11.17
2022-10-13T13:57:02.553Z,11.07
2022-10-13T13:59:30.021Z,11.37
2022-10-13T14:01:57.450Z,10.73
2022-10-13T14:04:24.947Z,11.50
2022-10-13T14:06:52.665Z,10.70
2022-10-13T14:09:20.281Z,11.93
2022-10-13T14:11:49.160Z,11.20
2022-10-13T14:14:16.764Z,11.90
2022-10-13T14:16:44.369Z,11.07
2022-10-13T14:19:11.880Z,10.07
2022-10-13T14:21:39.424Z,10.93
2022-10-13T14:24:07.196Z,9.97
2022-10-13T14:26:34.660Z,9.70
2022-10-13T14:29:04.164Z,9.97
2022-10-13T14:31:31.651Z,9.70
2022-10-13T14:33:59.183Z,10.27
2022-10-13T14:36:26.990Z,10.20
2022-10-13T14:38:55.097Z,10.70
2022-10-13T14:41:22.922Z,10.23
2022-10-13T14:43:52.787Z,9.87
2022-10-13T14:46:21.909Z,9.37
2022-10-13T14:48:49.649Z,10.90
2022-10-13T14:51:17.429Z,9.90
2022-10-13T14:53:45.546Z,10.77
2022-10-13T14:56:16.090Z,8.57
2022-10-13T14:58:43.919Z,9.67
2022-10-13T15:01:11.574Z,9.30
2022-10-13T15:03:40.514Z,9.60
2022-10-13T15:06:08.586Z,8.93
2022-10-13T15:08:36.155Z,8.70
2022-10-13T15:11:04.037Z,8.20
2022-10-13T15:13:31.558Z,9.80
2022-10-13T15:16:01.028Z,9.17
2022-10-13T15:18:29.463Z,9.70
2022-10-13T15:20:58.624Z,9.77
2022-10-13T15:23:26.204Z,10.03
2022-10-13T15:25:55.979Z,9.17
2022-10-13T15:28:23.866Z,10.10
2022-10-13T15:30:51.632Z,9.10
2022-10-13T15:33:19.461Z,9.10
2022-10-13T15:35:48.564Z,9.83
2022-10-13T15:38:17.593Z,9.70
2022-10-13T15:40:45.130Z,9.93
2022-10-13T15:43:12.858Z,9.97
2022-10-13T15:45:40.669Z,9.67
2022-10-13T15:48:09.944Z,8.97
2022-10-13T15:50:39.554Z,9.60
2022-10-13T15:53:07.368Z,9.20
2022-10-13T15:55:36.300Z,11.10
2022-10-13T15:58:03.863Z,10.60
2022-10-13T16:00:31.439Z,9.57
2022-10-13T16:02:59.065Z,10.03
2022-10-13T16:05:26.840Z,10.23
2022-10-13T16:07:54.380Z,10.13
2022-10-13T16:10:21.871Z,10.17
2022-10-13T16:12:51.007Z,10.43
2022-10-13T16:15:19.025Z,9.97
2022-10-13T16:17:46.615Z,10.80
2022-10-13T16:20:14.316Z,10.87
2022-10-13T16:22:41.882Z,10.90
2022-10-13T16:25:11.002Z,10.53
2022-10-13T16:27:43.853Z,10.63
2022-10-13T16:30:13.752Z,11.83
2022-10-13T16:32:41.304Z,11.30
2022-10-13T16:35:09.086Z,10.70
2022-10-13T16:37:36.553Z,11.57
2022-10-13T16:40:04.092Z,12.30
2022-10-13T16:42:31.581Z,12.13
2022-10-13T16:44:59.070Z,11.90
2022-10-13T16:47:27.857Z,12.40
2022-10-13T16:49:55.393Z,13.40
2022-10-13T16:52:22.825Z,12.17
2022-10-13T16:54:50.374Z,11.90
2022-10-13T16:57:18.084Z,12.23
2022-10-13T16:59:45.675Z,12.07
2022-10-13T17:02:15.073Z,11.47
2022-10-13T17:04:44.165Z,12.67
2022-10-13T17:07:11.630Z,12.37
2022-10-13T17:09:39.048Z,12.17
2022-10-13T17:12:06.888Z,12.07
2022-10-13T17:14:34.405Z,12.20
2022-10-13T17:17:01.920Z,12.70
2022-10-13T17:19:31.843Z,14.20
2022-10-13T17:22:01.064Z,12.63
2022-10-13T17:24:29.933Z,13.00
2022-10-13T17:26:57.437Z,12.53
2022-10-13T17:29:25.161Z,12.50
2022-10-13T17:31:52.809Z,12.03
2022-10-13T17:34:20.383Z,12.37
2022-10-13T17:36:48.077Z,11.37
2022-10-13T17:39:17.691Z,13.07
2022-10-13T17:41:45.265Z,13.07
2022-10-13T17:44:12.828Z,12.47
2022-10-13T17:46:40.464Z,12.97
2022-10-13T17:49:11.518Z,13.17
2022-10-13T17:51:42.521Z,12.73
2022-10-13T17:54:15.677Z,13.30
2022-10-13T17:56:45.421Z,12.73
2022-10-13T17:59:13.074Z,12.87
2022-10-13T18:01:41.931Z,13.83
2022-10-13T18:04:11.248Z,13.33
2022-10-13T18:06:40.948Z,12.53
2022-10-13T18:09:09.297Z,13.33
2022-10-13T18:11:37.151Z,14.40
2022-10-13T18:14:06.415Z,13.90
2022-10-13T18:16:34.274Z,13.63
2022-10-13T18:19:02.760Z,13.73
2022-10-13T18:21:30.320Z,13.87
2022-10-13T18:23:58.640Z,13.47
2022-10-13T18:26:26.752Z,12.73
2022-10-13T18:28:54.621Z,13.47
2022-10-13T18:31:24.382Z,12.87
2022-10-13T18:33:52.233Z,13.17
2022-10-13T18:36:23.489Z,13.67
2022-10-13T18:38:51.193Z,13.60
2022-10-13T18:41:19.467Z,13.10
2022-10-13T18:43:47.025Z,13.37
2022-10-13T18:46:14.636Z,13.77
2022-10-13T18:48:43.662Z,13.00
2022-10-13T18:51:12.026Z,14.30
2022-10-13T18:53:40.315Z,12.60
2022-10-13T18:56:09.505Z,12.67
2022-10-13T18:58:37.113Z,12.57
2022-10-13T19:01:06.093Z,13.23
2022-10-13T19:03:34.102Z,12.63
2022-10-13T19:06:03.621Z,13.17
2022-10-13T19:08:31.294Z,12.93
2022-10-13T19:10:59.144Z,13.80
2022-10-13T19:13:27.860Z,13.27
2022-10-13T19:16:00.085Z,14.40
2022-10-13T19:18:27.914Z,14.23
2022-10-13T19:20:55.740Z,13.63
2022-10-13T19:23:25.174Z,13.30
2022-10-13T19:25:52.976Z,12.93
2022-10-13T19:28:20.812Z,13.50
2022-10-13T19:30:48.805Z,14.47
2022-10-13T19:33:17.409Z,13.57
2022-10-13T19:35:47.692Z,13.57
2022-10-13T19:38:16.251Z,14.23
2022-10-13T19:40:46.847Z,13.57
2022-10-13T19:43:14.472Z,14.03
2022-10-13T19:45:45.038Z,14.20
2022-10-13T19:48:12.743Z,13.57
2022-10-13T19:50:41.578Z,13.63
2022-10-13T19:53:09.167Z,13.87
2022-10-13T19:55:41.187Z,14.93
2022-10-13T19:58:11.383Z,14.10
2022-10-13T20:00:39.225Z,13.53
2022-10-13T20:03:06.806Z,13.53
2022-10-13T20:05:34.355Z,14.50
2022-10-13T20:08:01.883Z,14.07
2022-10-13T20:10:29.466Z,14.03
2022-10-13T20:12:56.876Z,14.47
2022-10-13T20:15:25.749Z,14.53
2022-10-13T20:17:53.170Z,14.47
2022-10-13T20:20:22.480Z,15.33
2022-10-13T20:22:50.150Z,15.23
2022-10-13T20:25:19.883Z,14.90
2022-10-13T20:27:47.468Z,15.33
2022-10-13T20:30:14.984Z,16.13
2022-10-13T20:32:43.725Z,16.43
2022-10-13T20:35:11.218Z,16.20
2022-10-13T20:37:38.703Z,17.10
2022-10-13T20:40:06.553Z,17.33
2022-10-13T20:42:34.119Z,17.87
2022-10-13T20:45:01.803Z,16.50
2022-10-13T20:47:29.338Z,16.30
2022-10-13T20:49:58.260Z,15.77
2022-10-13T20:52:25.789Z,17.47
2022-10-13T20:54:53.370Z,16.03
2022-10-13T20:57:21.390Z,15.73
2022-10-13T20:59:50.014Z,17.07
2022-10-13T21:02:17.857Z,15.20
2022-10-13T21:04:45.421Z,17.57
2022-10-13T21:07:14.396Z,15.40
2022-10-13T21:09:41.998Z,15.13
2022-10-13T21:12:09.573Z,16.37
2022-10-13T21:14:37.147Z,15.47
2022-10-13T21:17:04.776Z,15.93
2022-10-13T21:19:32.331Z,15.33
2022-10-13T21:21:59.896Z,15.73
2022-10-13T21:24:28.781Z,14.37
2022-10-13T21:26:56.275Z,14.77
2022-10-13T21:29:23.780Z,14.20
2022-10-13T21:31:51.387Z,14.03
2022-10-13T21:34:18.972Z,14.60
2022-10-13T21:36:46.574Z,14.27
2022-10-13T21:39:14.394Z,12.00
2022-10-13T21:41:43.274Z,13.20
2022-10-13T21:44:13.253Z,14.57
2022-10-13T21:46:41.085Z,13.50
2022-10-13T21:49:09.291Z,14.97
2022-10-13T21:51:37.591Z,14.40
2022-10-13T21:54:06.255Z,13.90
2022-10-13T21:56:34.350Z,13.00
2022-10-13T21:59:03.569Z,14.10
2022-10-13T22:01:31.116Z,13.13
2022-10-13T22:03:59.462Z,12.20
2022-10-13T22:06:27.664Z,12.37
2022-10-13T22:08:56.163Z,12.40
2022-10-13T22:11:25.288Z,12.07
2022-10-13T22:13:53.598Z,11.50
2022-10-13T22:16:22.992Z,11.40
2022-10-13T22:18:52.206Z,11.47
2022-10-13T22:21:21.635Z,11.40
2022-10-13T22:23:49.379Z,10.83
2022-10-13T22:26:17.634Z,11.27
2022-10-13T22:28:45.118Z,11.67
2022-10-13T22:31:13.769Z,10.93
2022-10-13T22:33:42.991Z,11.37
2022-10-13T22:36:11.670Z,10.00
2022-10-13T22:38:40.242Z,11.20
2022-10-13T22:41:08.848Z,11.20
2022-10-13T22:43:36.575Z,10.60
2022-10-13T22:46:04.086Z,11.47
2022-10-13T22:48:31.541Z,10.70
2022-10-13T22:51:02.999Z,10.07
2022-10-13T22:53:30.445Z,11.10
2022-10-13T22:55:57.958Z,10.70
2022-10-13T22:58:25.538Z,9.70
2022-10-13T23:00:53.070Z,9.90
2022-10-13T23:03:20.691Z,9.87
2022-10-13T23:05:48.816Z,10.83
2022-10-13T23:08:17.738Z,10.87
2022-10-13T23:10:45.197Z,11.00
2022-10-13T23:13:12.616Z,10.70
2022-10-13T23:15:40.251Z,10.73
2022-10-13T23:18:07.768Z,11.10
2022-10-13T23:20:35.319Z,10.47
2022-10-13T23:23:02.790Z,10.57
2022-10-13T23:25:31.589Z,11.23
2022-10-13T23:27:59.075Z,10.53
2022-10-13T23:30:26.554Z,10.63
2022-10-13T23:32:53.972Z,11.27
2022-10-13T23:35:21.450Z,10.23
2022-10-13T23:37:48.914Z,11.20
2022-10-13T23:40:16.598Z,11.53
2022-10-13T23:42:45.455Z,11.90
2022-10-13T23:45:12.884Z,12.80
2022-10-13T23:47:40.364Z,12.97
2022-10-13T23:50:08.053Z,13.13
2022-10-13T23:52:35.541Z,12.07
2022-10-13T23:55:03.206Z,13.27
2022-10-13T23:57:30.705Z,12.83
2022-10-13T23:59:59.435Z,12.50
